createdAt,value
2018-12-07T00:02:05.771Z,96.26
2018-12-07T00:04:34.240Z,96.66
2018-12-07T00:07:02.672Z,96.08
2018-12-07T00:09:31.141Z,95.91
2018-12-07T00:11:59.589Z,95.95
2018-12-07T00:14:28.044Z,96.58
2018-12-07T00:16:56.588Z,96.71
2018-12-07T00:19:25.175Z,96.42
2018-12-07T00:21:53.618Z,96.19
2018-12-07T00:24:22.108Z,96.46
2018-12-07T00:26:50.556Z,96.52
2018-12-07T00:29:19.029Z,96.67
2018-12-07T00:31:47.467Z,97.21
2018-12-07T00:34:15.948Z,96.87
2018-12-07T00:36:44.383Z,96.45
2018-12-07T00:39:12.839Z,96.74
2018-12-07T00:41:41.272Z,97.11
2018-12-07T00:44:09.743Z,96.71
2018-12-07T00:46:38.165Z,97.26
2018-12-07T00:49:06.636Z,97.08
2018-12-07T00:51:35.075Z,97.60
2018-12-07T00:54:03.534Z,97.50
2018-12-07T00:56:31.963Z,97.59
2018-12-07T00:59:00.432Z,97.10
2018-12-07T01:01:28.976Z,97.15
2018-12-07T01:03:57.451Z,97.71
2018-12-07T01:06:26.016Z,97.21
2018-12-07T01:08:54.462Z,97.66
2018-12-07T01:11:22.900Z,97.09
2018-12-07T01:13:51.381Z,97.18
2018-12-07T01:16:19.824Z,97.31
2018-12-07T01:18:48.283Z,97.04
2018-12-07T01:21:16.705Z,97.17
2018-12-07T01:23:45.172Z,96.93
2018-12-07T01:26:13.616Z,96.77
2018-12-07T01:28:42.076Z,97.27
2018-12-07T01:31:10.507Z,97.27
2018-12-07T01:33:38.962Z,96.89
2018-12-07T01:36:07.400Z,96.71
2018-12-07T01:38:35.851Z,96.90
2018-12-07T01:41:04.284Z,96.62
2018-12-07T01:43:32.753Z,96.50
2018-12-07T01:46:01.197Z,96.76
2018-12-07T01:48:29.672Z,96.48
2018-12-07T01:50:58.122Z,96.75
2018-12-07T01:53:26.601Z,96.51
2018-12-07T01:55:55.038Z,96.31
2018-12-07T01:58:23.483Z,96.32
2018-12-07T02:00:51.939Z,96.20
2018-12-07T02:03:20.393Z,95.89
2018-12-07T02:05:48.832Z,96.10
2018-12-07T02:08:17.267Z,96.14
2018-12-07T02:10:45.736Z,96.39
2018-12-07T02:13:14.179Z,96.00
2018-12-07T02:15:42.652Z,95.86
2018-12-07T02:18:11.081Z,96.06
2018-12-07T02:20:39.540Z,95.62
2018-12-07T02:23:07.976Z,95.67
2018-12-07T02:25:36.444Z,96.20
2018-12-07T02:28:04.986Z,96.17
2018-12-07T02:30:33.435Z,96.11
2018-12-07T02:33:01.890Z,95.73
2018-12-07T02:35:30.332Z,96.24
2018-12-07T02:37:58.775Z,96.17
2018-12-07T02:40:27.240Z,96.60
2018-12-07T02:42:55.705Z,96.54
2018-12-07T02:45:24.177Z,96.33
2018-12-07T02:47:52.624Z,96.74
2018-12-07T02:50:21.090Z,96.66
2018-12-07T02:52:49.525Z,97.00
2018-12-07T02:55:18.124Z,96.63
2018-12-07T02:57:46.582Z,96.68
2018-12-07T03:00:15.048Z,96.51
2018-12-07T03:02:43.616Z,96.35
2018-12-07T03:05:12.216Z,96.55
2018-12-07T03:07:40.644Z,96.17
2018-12-07T03:10:09.351Z,96.57
2018-12-07T03:12:37.933Z,96.14
2018-12-07T03:15:07.008Z,96.05
2018-12-07T03:17:35.444Z,95.98
2018-12-07T03:20:04.195Z,96.32
2018-12-07T03:22:32.637Z,96.20
2018-12-07T03:25:01.119Z,96.41
2018-12-07T03:27:29.539Z,96.41
2018-12-07T03:29:58.017Z,96.23
2018-12-07T03:32:26.461Z,96.18
2018-12-07T03:34:55.041Z,96.06
2018-12-07T03:37:23.479Z,95.92
2018-12-07T03:39:51.960Z,95.85
2018-12-07T03:42:20.408Z,95.92
2018-12-07T03:44:48.868Z,95.75
2018-12-07T03:47:17.306Z,95.48
2018-12-07T03:49:45.773Z,95.50
2018-12-07T03:52:14.183Z,95.20
2018-12-07T03:54:42.646Z,95.36
2018-12-07T03:57:11.092Z,95.31
2018-12-07T03:59:39.560Z,95.66
2018-12-07T04:02:08.129Z,95.74
2018-12-07T04:04:36.605Z,95.41
2018-12-07T04:07:05.305Z,95.23
2018-12-07T04:09:33.759Z,95.70
2018-12-07T04:12:02.196Z,95.23
2018-12-07T04:14:30.669Z,95.27
2018-12-07T04:16:59.103Z,95.71
2018-12-07T04:19:27.570Z,95.98
2018-12-07T04:21:56.006Z,96.15
2018-12-07T04:24:24.479Z,96.19
2018-12-07T04:26:52.922Z,96.03
2018-12-07T04:29:21.409Z,95.97
2018-12-07T04:31:49.828Z,96.16
2018-12-07T04:34:18.753Z,96.50
2018-12-07T04:36:47.201Z,96.71
2018-12-07T04:39:15.773Z,96.58
2018-12-07T04:41:44.248Z,96.77
2018-12-07T04:44:12.808Z,97.08
2018-12-07T04:46:41.256Z,97.18
2018-12-07T04:49:09.702Z,97.17
2018-12-07T04:51:38.160Z,96.82
2018-12-07T04:54:06.603Z,96.79
2018-12-07T04:56:35.068Z,96.73
2018-12-07T04:59:03.502Z,96.94
2018-12-07T05:01:31.961Z,96.82
2018-12-07T05:04:00.407Z,96.66
2018-12-07T05:06:28.865Z,96.52
2018-12-07T05:08:57.317Z,96.60
2018-12-07T05:11:25.795Z,96.40
2018-12-07T05:13:54.211Z,96.82
2018-12-07T05:24:46.668Z,98.40
2018-12-07T05:27:15.099Z,98.68
2018-12-07T05:29:43.536Z,98.18
2018-12-07T05:32:12.199Z,97.90
2018-12-07T05:34:40.678Z,97.94
2018-12-07T05:37:09.119Z,97.88
2018-12-07T05:39:37.605Z,97.61
2018-12-07T05:42:06.075Z,97.61
2018-12-07T05:44:34.528Z,97.52
2018-12-07T05:47:03.000Z,97.24
2018-12-07T05:49:31.431Z,97.08
2018-12-07T05:51:59.949Z,97.49
2018-12-07T05:54:28.388Z,97.10
2018-12-07T05:56:56.839Z,96.93
2018-12-07T05:59:25.281Z,97.43
2018-12-07T06:01:53.764Z,97.34
2018-12-07T06:04:22.201Z,97.14
2018-12-07T06:06:50.657Z,97.05
2018-12-07T06:09:19.111Z,97.24
2018-12-07T06:11:47.580Z,96.90
2018-12-07T06:14:16.024Z,97.05
2018-12-07T06:16:44.500Z,96.73
2018-12-07T06:19:12.952Z,96.83
2018-12-07T06:21:41.408Z,96.60
2018-12-07T06:24:09.846Z,96.78
2018-12-07T06:26:38.320Z,96.80
2018-12-07T06:29:06.771Z,96.83
2018-12-07T06:31:35.374Z,96.72
2018-12-07T06:34:03.821Z,96.57
2018-12-07T06:36:32.312Z,96.64
2018-12-07T06:39:00.744Z,96.41
2018-12-07T06:41:29.192Z,96.82
2018-12-07T06:43:57.628Z,96.73
2018-12-07T06:46:26.097Z,96.55
2018-12-07T06:49:12.428Z,96.65
2018-12-07T06:51:42.199Z,96.78
2018-12-07T06:54:10.794Z,96.74
2018-12-07T06:56:39.462Z,96.84
2018-12-07T06:59:08.635Z,97.04
2018-12-07T07:01:37.166Z,96.81
2018-12-07T07:04:05.648Z,96.59
2018-12-07T07:06:34.118Z,96.40
2018-12-07T07:09:02.682Z,96.26
2018-12-07T07:11:31.151Z,96.69
2018-12-07T07:13:59.561Z,96.61
2018-12-07T07:16:28.024Z,96.43
2018-12-07T07:18:56.591Z,96.31
2018-12-07T07:21:25.056Z,96.39
2018-12-07T07:23:53.482Z,96.38
2018-12-07T07:26:21.943Z,96.49
2018-12-07T07:28:50.376Z,96.64
2018-12-07T07:31:18.842Z,95.85
2018-12-07T07:33:47.266Z,95.48
2018-12-07T07:36:15.735Z,95.98
2018-12-07T07:38:44.169Z,95.47
2018-12-07T07:41:12.763Z,95.84
2018-12-07T07:43:41.192Z,95.52
2018-12-07T07:46:09.737Z,95.03
2018-12-07T07:48:38.419Z,94.54
2018-12-07T07:51:06.892Z,94.54
2018-12-07T07:53:35.365Z,94.53
2018-12-07T07:56:04.037Z,94.35
2018-12-07T07:58:32.467Z,95.01
2018-12-07T08:01:01.180Z,94.34
2018-12-07T08:03:29.629Z,94.06
2018-12-07T08:05:58.963Z,93.54
2018-12-07T08:08:27.380Z,94.03
2018-12-07T08:10:55.824Z,93.48
2018-12-07T08:13:24.250Z,93.51
2018-12-07T08:15:52.699Z,93.88
2018-12-07T08:18:21.145Z,93.60
2018-12-07T08:20:49.616Z,93.55
2018-12-07T08:23:18.044Z,93.63
2018-12-07T08:25:46.496Z,93.91
2018-12-07T08:28:14.916Z,94.14
2018-12-07T08:30:43.376Z,93.74
2018-12-07T08:33:13.243Z,93.99
2018-12-07T08:35:41.724Z,93.92
2018-12-07T08:38:10.283Z,93.90
2018-12-07T08:40:38.713Z,93.39
2018-12-07T08:43:07.200Z,93.74
2018-12-07T08:45:35.638Z,93.51
2018-12-07T08:48:04.233Z,93.66
2018-12-07T08:50:32.688Z,93.61
2018-12-07T08:53:01.196Z,93.19
2018-12-07T08:55:29.632Z,93.36
2018-12-07T08:57:58.172Z,93.76
2018-12-07T09:00:26.720Z,94.05
2018-12-07T09:02:55.174Z,93.78
2018-12-07T09:05:23.627Z,93.80
2018-12-07T09:07:52.099Z,93.63
2018-12-07T09:10:20.545Z,94.14
2018-12-07T09:12:49.024Z,93.95
2018-12-07T09:15:17.456Z,93.41
2018-12-07T09:17:45.912Z,93.56
2018-12-07T09:20:14.388Z,93.70
2018-12-07T09:22:42.869Z,93.89
2018-12-07T09:25:11.315Z,93.40
2018-12-07T09:27:39.774Z,93.36
2018-12-07T09:30:08.217Z,93.11
2018-12-07T09:32:36.700Z,92.98
2018-12-07T09:35:05.582Z,92.63
2018-12-07T09:37:34.048Z,92.83
2018-12-07T09:40:02.596Z,92.56
2018-12-07T09:42:31.079Z,92.86
2018-12-07T09:44:59.504Z,92.21
2018-12-07T09:47:27.973Z,92.16
2018-12-07T09:49:56.405Z,91.99
2018-12-07T09:52:24.879Z,92.10
2018-12-07T09:54:53.311Z,91.78
2018-12-07T09:57:21.860Z,90.75
2018-12-07T09:59:50.296Z,90.94
2018-12-07T10:02:18.764Z,91.53
2018-12-07T10:04:48.103Z,91.05
2018-12-07T10:07:16.568Z,91.48
2018-12-07T10:09:45.073Z,91.39
2018-12-07T10:12:13.657Z,91.23
2018-12-07T10:14:42.076Z,91.16
2018-12-07T10:17:10.547Z,91.49
2018-12-07T10:19:38.996Z,91.25
2018-12-07T10:22:07.464Z,90.52
2018-12-07T10:24:35.938Z,89.84
2018-12-07T10:27:07.503Z,87.81
2018-12-07T10:29:36.033Z,87.80
2018-12-07T10:32:04.628Z,86.00
2018-12-07T10:34:33.073Z,84.04
2018-12-07T10:37:01.615Z,83.29
2018-12-07T10:39:30.065Z,84.18
2018-12-07T10:41:59.905Z,85.24
2018-12-07T10:44:28.599Z,85.65
2018-12-07T10:46:57.048Z,85.25
2018-12-07T10:49:25.497Z,86.41
2018-12-07T10:51:53.939Z,85.76
2018-12-07T10:54:22.368Z,86.00
2018-12-07T10:56:50.818Z,85.28
2018-12-07T10:59:19.427Z,84.50
2018-12-07T11:01:53.428Z,85.70
2018-12-07T11:05:27.956Z,85.39
2018-12-07T11:08:01.753Z,85.42
2018-12-07T11:10:35.523Z,85.17
2018-12-07T11:13:09.252Z,85.55
2018-12-07T11:15:42.956Z,85.43
2018-12-07T11:18:16.727Z,85.99
2018-12-07T11:20:50.405Z,85.34
2018-12-07T11:23:24.948Z,85.04
2018-12-07T11:25:58.817Z,85.04
2018-12-07T11:28:32.561Z,85.50
2018-12-07T11:31:06.416Z,85.17
2018-12-07T11:33:46.819Z,84.87
2018-12-07T11:36:15.288Z,84.19
2018-12-07T11:38:43.742Z,83.25
2018-12-07T11:41:12.199Z,83.29
2018-12-07T11:43:40.655Z,83.42
2018-12-07T11:46:09.122Z,82.29
2018-12-07T11:48:37.605Z,82.99
2018-12-07T11:51:07.085Z,83.35
2018-12-07T11:53:35.584Z,82.03
2018-12-07T11:56:04.168Z,82.72
2018-12-07T11:58:32.628Z,82.41
2018-12-07T12:01:01.051Z,83.15
2018-12-07T12:03:29.468Z,83.25
2018-12-07T12:05:57.945Z,83.91
2018-12-07T12:08:26.372Z,84.53
2018-12-07T12:10:54.826Z,84.98
2018-12-07T12:13:23.904Z,84.33
2018-12-07T12:15:52.372Z,84.63
2018-12-07T12:18:20.781Z,84.95
2018-12-07T12:20:49.360Z,85.70
2018-12-07T12:23:17.835Z,85.96
2018-12-07T12:25:46.440Z,85.33
2018-12-07T12:28:14.880Z,86.47
2018-12-07T12:30:43.328Z,86.05
2018-12-07T12:33:11.780Z,86.29
2018-12-07T12:35:40.240Z,87.04
2018-12-07T12:45:07.085Z,87.65
2018-12-07T12:47:35.504Z,87.89
2018-12-07T12:50:06.848Z,86.90
2018-12-07T12:52:35.351Z,86.40
2018-12-07T12:55:04.585Z,85.22
2018-12-07T12:57:33.017Z,84.13
2018-12-07T13:00:01.610Z,84.28
2018-12-07T13:02:30.039Z,83.76
2018-12-07T13:04:58.509Z,83.86
2018-12-07T13:07:27.235Z,83.90
2018-12-07T13:09:55.811Z,83.64
2018-12-07T13:12:24.233Z,83.24
2018-12-07T13:14:52.672Z,82.47
2018-12-07T13:17:21.138Z,82.30
2018-12-07T13:19:49.571Z,82.66
2018-12-07T13:22:18.037Z,82.24
2018-12-07T13:24:46.478Z,81.97
2018-12-07T13:27:14.937Z,81.83
2018-12-07T13:29:43.372Z,81.19
2018-12-07T13:32:12.024Z,81.27
2018-12-07T13:34:40.492Z,81.62
2018-12-07T13:37:09.060Z,82.68
2018-12-07T13:39:37.688Z,82.71
2018-12-07T13:42:06.351Z,82.95
2018-12-07T13:44:35.175Z,83.87
2018-12-07T13:47:03.872Z,83.36
2018-12-07T13:49:32.426Z,84.64
2018-12-07T13:52:01.005Z,84.61
2018-12-07T13:54:29.476Z,85.30
2018-12-07T13:56:58.018Z,85.75
2018-12-07T13:59:26.535Z,85.06
2018-12-07T14:01:55.143Z,83.87
2018-12-07T14:04:23.724Z,82.33
2018-12-07T14:06:52.286Z,82.19
2018-12-07T14:09:20.788Z,82.29
2018-12-07T14:11:50.776Z,82.97
2018-12-07T14:14:19.626Z,83.46
2018-12-07T14:16:48.346Z,83.47
2018-12-07T14:19:17.044Z,83.86
2018-12-07T14:21:45.602Z,84.12
2018-12-07T14:24:14.366Z,84.64
2018-12-07T14:26:42.858Z,85.50
2018-12-07T14:29:11.698Z,85.42
2018-12-07T14:31:41.111Z,85.90
2018-12-07T14:34:09.854Z,85.92
2018-12-07T14:36:38.656Z,86.33
2018-12-07T14:39:07.961Z,86.70
2018-12-07T14:41:36.666Z,86.76
2018-12-07T14:44:05.659Z,86.97
2018-12-07T14:46:34.550Z,87.56
2018-12-07T14:49:03.244Z,87.40
2018-12-07T14:51:31.953Z,87.48
2018-12-07T14:54:00.953Z,87.58
2018-12-07T14:56:29.729Z,88.21
2018-12-07T14:58:58.225Z,88.56
2018-12-07T15:01:26.728Z,88.97
2018-12-07T15:03:55.380Z,89.03
2018-12-07T15:06:24.120Z,89.27
2018-12-07T15:08:52.876Z,89.42
2018-12-07T15:11:21.590Z,89.56
2018-12-07T15:13:50.294Z,89.72
2018-12-07T15:16:18.963Z,89.99
2018-12-07T15:18:47.687Z,90.08
2018-12-07T15:21:16.390Z,89.84
2018-12-07T15:23:44.834Z,89.67
2018-12-07T15:26:13.461Z,89.29
2018-12-07T15:28:42.022Z,89.32
2018-12-07T15:31:10.661Z,89.57
2018-12-07T15:33:39.724Z,89.28
2018-12-07T15:36:08.441Z,89.33
2018-12-07T15:38:37.012Z,89.35
2018-12-07T15:41:05.569Z,89.17
2018-12-07T15:43:34.431Z,88.81
2018-12-07T15:46:03.281Z,88.59
2018-12-07T15:48:31.922Z,88.78
2018-12-07T15:51:00.533Z,88.30
2018-12-07T15:53:29.126Z,88.66
2018-12-07T15:55:57.746Z,88.42
2018-12-07T15:58:26.413Z,88.23
2018-12-07T16:00:55.079Z,88.38
2018-12-07T16:03:23.739Z,88.93
2018-12-07T16:05:52.384Z,89.26
2018-12-07T16:08:24.888Z,89.32
2018-12-07T16:10:53.154Z,89.44
2018-12-07T16:13:22.153Z,89.62
2018-12-07T16:15:50.657Z,89.85
2018-12-07T16:18:19.124Z,90.19
2018-12-07T16:20:47.651Z,90.35
2018-12-07T16:23:16.572Z,90.87
2018-12-07T16:25:45.533Z,90.82
2018-12-07T16:28:14.372Z,90.96
2018-12-07T16:30:43.579Z,91.33
2018-12-07T16:33:12.170Z,92.01
2018-12-07T16:35:40.914Z,92.45
2018-12-07T16:38:09.521Z,92.75
2018-12-07T16:40:38.241Z,92.65
2018-12-07T16:43:06.812Z,92.92
2018-12-07T16:45:35.352Z,92.88
2018-12-07T16:48:03.869Z,93.10
2018-12-07T16:50:34.467Z,92.91
2018-12-07T16:53:02.986Z,93.26
2018-12-07T16:55:31.496Z,93.33
2018-12-07T16:58:00.326Z,93.23
2018-12-07T17:00:30.003Z,93.23
2018-12-07T17:02:58.721Z,93.11
2018-12-07T17:05:27.457Z,92.95
2018-12-07T17:07:57.055Z,92.59
2018-12-07T17:10:26.482Z,92.72
2018-12-07T17:12:55.456Z,92.73
2018-12-07T17:15:24.271Z,92.88
2018-12-07T17:17:53.026Z,92.93
2018-12-07T17:20:21.765Z,92.66
2018-12-07T17:22:50.352Z,92.92
2018-12-07T17:25:18.792Z,93.41
2018-12-07T17:27:47.460Z,93.75
2018-12-07T17:30:16.314Z,94.32
2018-12-07T17:32:44.826Z,94.15
2018-12-07T17:35:13.498Z,94.25
2018-12-07T17:37:42.270Z,94.11
2018-12-07T17:40:11.224Z,93.73
2018-12-07T17:42:39.915Z,94.02
2018-12-07T17:45:08.860Z,93.98
2018-12-07T17:47:37.530Z,93.92
2018-12-07T17:50:07.012Z,94.09
2018-12-07T17:52:35.816Z,93.92
2018-12-07T17:55:04.594Z,94.33
2018-12-07T17:57:33.090Z,94.15
2018-12-07T18:00:01.585Z,94.08
2018-12-07T18:02:30.234Z,94.45
2018-12-07T18:04:58.827Z,94.39
2018-12-07T18:07:27.337Z,94.25
2018-12-07T18:09:55.873Z,94.06
2018-12-07T18:12:24.379Z,94.31
2018-12-07T18:14:53.294Z,94.06
2018-12-07T18:17:22.153Z,93.96
2018-12-07T18:19:51.032Z,94.44
2018-12-07T18:22:19.589Z,94.45
2018-12-07T18:24:48.243Z,93.99
2018-12-07T18:27:16.885Z,94.01
2018-12-07T18:29:45.629Z,93.95
2018-12-07T18:32:14.176Z,93.84
2018-12-07T18:34:42.977Z,92.61
2018-12-07T18:37:11.610Z,93.04
2018-12-07T18:39:40.225Z,93.09
2018-12-07T18:42:09.863Z,93.27
2018-12-07T18:44:38.785Z,93.13
2018-12-07T18:47:07.365Z,93.07
2018-12-07T18:49:36.094Z,92.99
2018-12-07T18:52:04.966Z,92.79
2018-12-07T18:54:33.861Z,92.89
2018-12-07T18:57:02.813Z,92.65
2018-12-07T18:59:31.460Z,91.84
2018-12-07T19:02:00.328Z,92.18
2018-12-07T19:04:29.036Z,92.23
2018-12-07T19:06:57.690Z,92.50
2018-12-07T19:09:26.544Z,92.35
2018-12-07T19:11:55.380Z,92.53
2018-12-07T19:14:24.037Z,92.45
2018-12-07T19:16:52.640Z,92.19
2018-12-07T19:19:21.238Z,92.23
2018-12-07T19:21:49.749Z,91.03
2018-12-07T19:24:18.509Z,91.35
2018-12-07T19:26:47.111Z,90.07
2018-12-07T19:29:15.647Z,88.70
2018-12-07T19:31:44.168Z,87.77
2018-12-07T19:34:13.022Z,86.83
2018-12-07T19:36:41.626Z,86.12
2018-12-07T19:39:10.555Z,86.44
2018-12-07T19:41:39.484Z,85.99
2018-12-07T19:44:08.171Z,86.67
2018-12-07T19:46:36.966Z,86.43
2018-12-07T19:49:05.826Z,86.46
2018-12-07T19:51:34.431Z,85.57
2018-12-07T19:54:03.067Z,85.38
2018-12-07T19:56:31.816Z,85.10
2018-12-07T19:59:02.397Z,84.72
2018-12-07T20:01:30.998Z,84.69
2018-12-07T20:03:59.692Z,85.60
2018-12-07T20:06:28.314Z,85.74
2018-12-07T20:08:57.186Z,86.44
2018-12-07T20:11:25.826Z,85.87
2018-12-07T20:13:54.347Z,85.92
2018-12-07T20:16:22.818Z,85.90
2018-12-07T20:18:51.452Z,85.10
2018-12-07T20:21:20.326Z,85.60
2018-12-07T20:23:48.841Z,84.82
2018-12-07T20:26:17.428Z,85.04
2018-12-07T20:28:46.075Z,84.81
2018-12-07T20:31:14.720Z,84.83
2018-12-07T20:33:43.852Z,84.15
2018-12-07T20:36:12.681Z,83.80
2018-12-07T20:38:43.174Z,83.82
2018-12-07T20:41:11.970Z,83.83
2018-12-07T20:43:40.738Z,84.10
2018-12-07T20:46:09.341Z,83.81
2018-12-07T20:50:02.576Z,83.38
2018-12-07T20:52:31.374Z,83.66
2018-12-07T20:55:00.062Z,83.78
2018-12-07T20:57:28.837Z,85.10
2018-12-07T20:59:57.835Z,85.69
2018-12-07T21:02:26.715Z,86.83
2018-12-07T21:04:59.050Z,87.97
2018-12-07T21:07:41.398Z,89.26
2018-12-07T21:10:49.250Z,90.91
2018-12-07T21:14:29.946Z,90.48
2018-12-07T21:17:10.221Z,90.99
2018-12-07T21:19:43.277Z,91.43
2018-12-07T21:22:11.732Z,91.24
2018-12-07T21:24:40.485Z,90.59
2018-12-07T21:27:09.254Z,90.54
2018-12-07T21:29:38.150Z,91.14
2018-12-07T21:32:09.888Z,90.20
2018-12-07T21:34:51.880Z,90.22
2018-12-07T21:37:20.679Z,91.41
2018-12-07T21:39:59.480Z,91.77
2018-12-07T21:42:27.992Z,93.19
2018-12-07T21:44:56.808Z,93.61
2018-12-07T21:47:50.615Z,93.17
2018-12-07T21:50:19.155Z,93.02
2018-12-07T21:52:47.800Z,93.81
2018-12-07T21:55:16.644Z,93.39
2018-12-07T21:57:45.327Z,94.13
2018-12-07T22:00:13.979Z,94.42
2018-12-07T22:02:42.536Z,94.69
2018-12-07T22:05:11.239Z,94.90
2018-12-07T22:07:39.881Z,94.87
2018-12-07T22:10:08.827Z,94.23
2018-12-07T22:12:37.626Z,94.26
2018-12-07T22:15:06.580Z,94.51
2018-12-07T22:17:35.136Z,94.71
2018-12-07T22:20:04.612Z,94.42
2018-12-07T22:22:33.279Z,93.97
2018-12-07T22:25:02.145Z,93.85
2018-12-07T22:27:30.913Z,93.49
2018-12-07T22:29:59.480Z,93.34
2018-12-07T22:32:28.031Z,92.74
2018-12-07T22:34:56.656Z,93.08
2018-12-07T22:37:25.310Z,93.93
2018-12-07T22:39:54.181Z,94.25
2018-12-07T22:42:22.814Z,94.11
2018-12-07T22:44:51.425Z,94.32
2018-12-07T22:47:20.168Z,94.54
2018-12-07T22:49:48.689Z,94.44
2018-12-07T22:52:17.173Z,94.60
2018-12-07T22:54:45.602Z,94.11
2018-12-07T22:57:14.108Z,92.86
2018-12-07T22:59:42.560Z,92.44
2018-12-07T23:02:11.361Z,91.24
2018-12-07T23:04:39.836Z,90.64
2018-12-07T23:07:08.293Z,90.16
2018-12-07T23:09:37.033Z,89.16
2018-12-07T23:12:05.711Z,89.37
2018-12-07T23:14:34.205Z,88.28
2018-12-07T23:17:02.678Z,89.20
2018-12-07T23:19:31.124Z,87.12
2018-12-07T23:21:59.539Z,86.56
2018-12-07T23:24:28.164Z,85.68
2018-12-07T23:26:56.617Z,85.06
2018-12-07T23:29:25.121Z,84.16
2018-12-07T23:31:53.565Z,82.79
2018-12-07T23:34:22.013Z,81.65
2018-12-07T23:36:50.487Z,81.01
2018-12-07T23:39:18.969Z,80.18
2018-12-07T23:41:47.415Z,79.43
2018-12-07T23:44:15.878Z,79.41
2018-12-07T23:46:44.338Z,79.71
2018-12-07T23:49:13.140Z,78.71
2018-12-07T23:51:41.576Z,80.08
2018-12-07T23:54:10.083Z,80.17
2018-12-07T23:56:38.510Z,78.17
2018-12-07T23:59:07.005Z,78.95
